Decoded Metar for OIBK (KISH ISLAND in IRAN) (IATA:KIH) | Meteo·Mobile Aviation Weather
aviador You're here:

OIBK Decoded Metar

KISH ISLAND in IRAN
Report Time2018-10-20 08:30:00
UTC Time2018-10-20 08:56:45
Flight Rules vfr VFR
Wind120° at 12 kt
W.Decomp.*RWY 09: 10.5 kt HW 5.8 kt RCW
W.Rank120° ranks 7
Current wind is above 120° avg. (9.2)
Visibility9999 m
Phenomena:N/A
Clouds:Few 030 Hf
Expected CloudBase > 4,000 ft AGL from Temp-Dew spread
CeilingNone
Temp32°C (ISA +17)
Dew Point22°C (55% RH)
Heat Index35.6°C
QNH1014 hPa
Density Alt2,375 ft
Elevation98 ft
Report Wrong Elevation
Raw Report
OIBK 200830Z 12012KT 9999 FEW030 32/22 Q1014=

Extra information for OIBK:More info

Metar Taf Metar & Taf Last 4 Metars F.Rules Stats Wind Profile Meteogram Temp Stats Airport Information Weather charts Add Link Nearby VenuesMetar ALERT Operation Metar Decoded Social comments